Time;durP1;ratioP1;P1;durP2;ratioP2;P2;SDS_P1;SDS_P2;PMS_P1;PMS_P2;Temp;Humidity;BMP_temperature;BMP_pressure;BME280_temperature;BME280_humidity;BME280_pressure;Samples;Min_cycle;Max_cycle;Signal;HPM_P1;HPM_P2
2022/03/24 00:01:38;;;;;;;1.27;1.17;;;;;;;23.79;13.18;101039.13;5096924;28;20032;-76
2022/03/24 00:04:04;;;;;;;1.27;1.17;;;;;;;23.80;13.28;101034.47;5096878;28;20031;-76
2022/03/24 00:06:30;;;;;;;1.67;1.58;;;;;;;23.78;13.20;101037.50;5097212;28;20044;-76
2022/03/24 00:08:56;;;;;;;1.30;1.20;;;;;;;23.78;13.20;101028.47;5096732;28;20355;-75
2022/03/24 00:11:21;;;;;;;1.30;1.20;;;;;;;23.77;13.37;101033.13;5096843;28;20024;-75
2022/03/24 00:13:48;;;;;;;1.33;1.23;;;;;;;23.74;13.22;101022.72;5096920;28;20475;-75
2022/03/24 00:16:15;;;;;;;1.17;1.08;;;;;;;23.77;13.22;101033.13;5096583;28;20020;-75
2022/03/24 00:18:41;;;;;;;2.35;1.55;;;;;;;23.65;13.42;101007.09;5096713;28;20028;-75
2022/03/24 00:21:07;;;;;;;1.55;1.45;;;;;;;23.72;13.36;101016.69;5099698;28;20016;-75
2022/03/24 00:23:32;;;;;;;1.20;1.10;;;;;;;23.75;13.02;101021.66;5117500;28;20027;-75
2022/03/24 00:25:58;;;;;;;1.30;1.20;;;;;;;23.75;13.20;101020.78;5117269;28;20476;-74
2022/03/24 00:28:23;;;;;;;1.30;1.20;;;;;;;23.72;13.28;101007.69;5117269;28;20373;-74
2022/03/24 00:30:49;;;;;;;1.00;1.00;;;;;;;23.72;13.41;101011.25;5117952;28;20451;-74
2022/03/24 00:33:14;;;;;;;1.33;1.20;;;;;;;23.76;13.12;101012.34;5117149;28;20484;-74
2022/03/24 00:35:40;;;;;;;1.30;1.20;;;;;;;23.74;13.12;101014.53;5117522;28;20034;-73
2022/03/24 00:38:05;;;;;;;1.20;1.10;;;;;;;23.72;13.13;101004.97;5098658;28;20035;-73
2022/03/24 00:40:31;;;;;;;1.40;1.30;;;;;;;23.72;13.22;100997.59;5117246;28;20028;-73
2022/03/24 00:42:59;;;;;;;1.30;1.20;;;;;;;23.72;13.22;101000.31;5116669;28;20111;-73
2022/03/24 00:45:24;;;;;;;1.20;1.10;;;;;;;23.71;13.43;100993.22;5116409;28;20023;-74
2022/03/24 00:47:50;;;;;;;1.20;1.10;;;;;;;23.71;13.23;100993.22;5098187;28;20020;-72
2022/03/24 00:50:15;;;;;;;1.23;1.13;;;;;;;23.71;13.23;100993.22;5116297;28;20047;-73
2022/03/24 00:52:41;;;;;;;1.05;0.98;;;;;;;23.67;13.15;100981.19;5116383;28;20506;-74
2022/03/24 00:55:11;;;;;;;1.45;1.35;;;;;;;23.70;13.35;100983.41;5116086;28;20377;-74
2022/03/24 00:57:36;;;;;;;1.40;1.30;;;;;;;23.69;13.19;100984.47;5116406;28;20036;-75
2022/03/24 01:00:03;;;;;;;1.23;1.13;;;;;;;23.68;13.42;100982.84;5116683;28;20386;-75
2022/03/24 01:02:29;;;;;;;1.30;1.20;;;;;;;23.68;13.47;100982.00;5116630;28;20030;-76
2022/03/24 01:04:55;;;;;;;0.93;0.93;;;;;;;23.71;13.28;100971.38;5116477;28;20035;-75
2022/03/24 01:07:21;;;;;;;1.30;1.20;;;;;;;23.64;13.53;100959.88;5115860;28;20047;-75
2022/03/24 01:09:47;;;;;;;1.23;1.13;;;;;;;23.62;13.37;100957.41;5116219;28;20106;-75
2022/03/24 01:12:13;;;;;;;1.10;1.10;;;;;;;23.69;13.47;100968.09;5116308;28;20027;-75
2022/03/24 01:14:39;;;;;;;1.40;1.10;;;;;;;23.70;13.50;100968.91;5116363;28;20043;-75
2022/03/24 01:17:07;;;;;;;1.38;1.27;;;;;;;23.68;13.62;100963.75;5098245;28;20023;-75
2022/03/24 01:19:32;;;;;;;0.98;0.95;;;;;;;23.65;13.30;100953.34;5098200;28;20138;-75
2022/03/24 01:21:58;;;;;;;1.00;1.00;;;;;;;23.67;13.36;100953.09;5106490;28;20436;-76
2022/03/24 01:24:24;;;;;;;1.00;1.00;;;;;;;23.66;13.61;100946.78;5095659;28;20099;-75
2022/03/24 01:26:49;;;;;;;0.98;0.88;;;;;;;23.67;13.44;100948.44;5095376;28;20466;-75
2022/03/24 01:29:15;;;;;;;1.10;1.10;;;;;;;23.68;13.34;100938.34;5095664;28;20477;-75
2022/03/24 01:31:42;;;;;;;1.00;1.00;;;;;;;23.67;13.47;100937.53;5095935;28;20073;-75
2022/03/24 01:34:09;;;;;;;0.90;0.90;;;;;;;23.63;13.69;100942.69;5095526;28;20048;-75
2022/03/24 01:36:35;;;;;;;1.25;1.15;;;;;;;23.64;13.54;100943.50;5095566;28;20020;-76
2022/03/24 01:39:00;;;;;;;1.20;1.10;;;;;;;23.63;13.90;100942.69;5095399;28;20378;-75
2022/03/24 01:41:26;;;;;;;1.02;1.02;;;;;;;23.64;13.62;100938.03;5095099;28;20095;-75
2022/03/24 01:43:51;;;;;;;1.02;1.02;;;;;;;23.65;13.56;100928.78;5076813;28;20016;-76
2022/03/24 01:46:23;;;;;;;1.05;1.00;;;;;;;23.64;13.51;100938.03;5094891;28;20028;-74
2022/03/24 01:48:48;;;;;;;1.20;1.10;;;;;;;23.62;13.58;100930.13;5094935;28;20024;-74
2022/03/24 01:51:14;;;;;;;0.85;0.85;;;;;;;23.64;13.86;100929.84;5094977;28;20030;-73
2022/03/24 01:53:39;;;;;;;0.90;0.90;;;;;;;23.57;13.78;100912.91;5094901;28;20105;-74
2022/03/24 01:56:05;;;;;;;1.30;1.20;;;;;;;23.61;13.88;100927.66;5095178;28;20067;-73
2022/03/24 01:58:30;;;;;;;1.00;0.90;;;;;;;23.63;13.74;100929.03;5060266;28;20020;-74
2022/03/24 02:01:00;;;;;;;0.90;0.90;;;;;;;23.63;13.54;100918.13;5095016;28;20428;-74
2022/03/24 02:03:26;;;;;;;1.10;1.05;;;;;;;23.63;13.74;100923.59;5094556;28;20070;-74
2022/03/24 02:05:51;;;;;;;0.93;0.90;;;;;;;23.62;13.30;100918.38;5060047;28;20035;-74
2022/03/24 02:08:17;;;;;;;1.42;1.33;;;;;;;23.62;13.62;100913.75;5094426;28;20044;-73
2022/03/24 02:10:42;;;;;;;0.90;0.90;;;;;;;23.56;13.64;100901.16;5094725;28;20343;-73
2022/03/24 02:13:09;;;;;;;0.80;0.80;;;;;;;23.61;13.70;100911.28;5076698;28;20470;-74
2022/03/24 02:15:34;;;;;;;1.10;1.10;;;;;;;23.60;13.82;100910.47;5094706;28;20092;-74
2022/03/24 02:18:00;;;;;;;1.27;1.17;;;;;;;23.61;13.89;100905.81;5093793;28;20032;-74
2022/03/24 02:20:28;;;;;;;0.90;0.90;;;;;;;23.59;13.92;100900.66;5094241;28;20424;-74
2022/03/24 02:22:53;;;;;;;0.80;0.80;;;;;;;23.58;13.62;100890.00;5109487;28;20440;-73
2022/03/24 02:25:19;;;;;;;1.10;1.00;;;;;;;23.61;13.54;100889.44;5115222;28;20027;-74
2022/03/24 02:27:49;;;;;;;1.15;1.05;;;;;;;23.62;13.73;100885.66;5115080;28;20035;-74
2022/03/24 02:30:14;;;;;;;0.95;0.95;;;;;;;23.59;13.77;100892.47;5115018;28;20059;-74
2022/03/24 02:32:40;;;;;;;0.82;0.82;;;;;;;23.59;14.00;100884.28;5115248;28;20020;-74
2022/03/24 02:35:05;;;;;;;0.85;0.85;;;;;;;23.61;13.77;100895.75;5114949;28;20030;-73
2022/03/24 02:37:31;;;;;;;1.00;0.88;;;;;;;23.62;13.80;100889.19;5115146;28;20094;-73
2022/03/24 02:39:57;;;;;;;0.80;0.80;;;;;;;23.60;14.00;100885.91;5114956;28;20042;-73
2022/03/24 02:42:28;;;;;;;0.88;0.88;;;;;;;23.58;13.82;100884.53;5114778;28;20437;-74
2022/03/24 02:44:56;;;;;;;0.75;0.75;;;;;;;23.60;14.02;100888.63;5115079;28;20039;-74
2022/03/24 02:47:21;;;;;;;0.80;0.80;;;;;;;23.60;14.03;100888.63;5114902;28;20369;-74
2022/03/24 02:49:50;;;;;;;0.80;0.80;;;;;;;23.58;14.08;100884.53;5115097;28;20031;-73
2022/03/24 02:52:16;;;;;;;0.90;0.90;;;;;;;23.58;13.90;100884.53;5114960;28;20062;-74
2022/03/24 02:54:42;;;;;;;0.90;0.90;;;;;;;23.60;14.15;100876.91;5114493;28;20020;-74
2022/03/24 02:57:08;;;;;;;0.90;0.90;;;;;;;23.61;14.00;100878.53;5114671;28;20107;-74
2022/03/24 02:59:33;;;;;;;1.02;1.00;;;;;;;23.56;14.05;100867.59;5114642;28;20107;-74
2022/03/24 03:02:20;;;;;;;0.80;0.80;;;;;;;23.54;13.99;100867.03;5115381;28;20047;-74
2022/03/24 03:04:49;;;;;;;0.80;0.80;;;;;;;23.59;14.05;100872.53;5098913;28;20492;-74
2022/03/24 03:07:14;;;;;;;0.90;0.90;;;;;;;23.60;14.11;100871.47;5114285;28;20486;-73
2022/03/24 03:09:40;;;;;;;0.80;0.80;;;;;;;23.59;14.15;100870.66;5114472;28;20035;-73
2022/03/24 03:12:06;;;;;;;0.80;0.80;;;;;;;23.58;13.95;100870.91;5114786;28;20039;-73
2022/03/24 03:14:31;;;;;;;0.70;0.70;;;;;;;23.58;14.21;100873.63;5115415;28;20024;-73
2022/03/24 03:16:57;;;;;;;0.80;0.80;;;;;;;23.58;13.94;100873.63;5114532;28;20505;-74
2022/03/24 03:19:23;;;;;;;0.80;0.80;;;;;;;23.59;14.05;100880.72;5114443;28;20385;-73
2022/03/24 03:21:49;;;;;;;0.90;0.90;;;;;;;23.56;14.15;100870.31;5110490;28;20028;-73
2022/03/24 03:24:14;;;;;;;0.75;0.75;;;;;;;23.56;14.05;100868.44;5094971;28;20099;-73
2022/03/24 03:26:40;;;;;;;0.80;0.80;;;;;;;23.56;13.97;100864.88;5094153;28;20489;-74
2022/03/24 03:29:06;;;;;;;0.80;0.80;;;;;;;23.54;14.29;100867.03;5095638;28;20075;-74
2022/03/24 03:31:32;;;;;;;0.93;0.93;;;;;;;23.52;14.04;100870.03;5104873;28;20099;-74
2022/03/24 03:33:58;;;;;;;1.17;1.08;;;;;;;23.52;14.08;100864.56;5104430;28;20050;-73
2022/03/24 03:36:24;;;;;;;0.90;0.90;;;;;;;23.54;13.96;100872.50;5104426;28;20466;-74
2022/03/24 03:38:49;;;;;;;1.00;1.00;;;;;;;23.52;14.26;100855.56;5108469;28;20058;-74
2022/03/24 03:41:15;;;;;;;1.10;1.00;;;;;;;23.53;14.22;100866.22;5109250;28;20039;-74
2022/03/24 03:43:44;;;;;;;0.80;0.80;;;;;;;23.53;14.17;100868.94;5111819;28;20062;-74
2022/03/24 03:46:10;;;;;;;0.80;0.80;;;;;;;23.54;14.02;100858.84;5110279;28;20053;-73
2022/03/24 03:48:37;;;;;;;0.90;0.90;;;;;;;23.52;14.19;100861.03;5108202;28;20020;-74
2022/03/24 03:51:03;;;;;;;0.75;0.75;;;;;;;23.53;14.04;100862.69;5109334;28;20024;-74
2022/03/24 03:53:29;;;;;;;0.80;0.80;;;;;;;23.48;14.06;100851.75;5096201;28;20016;-74
2022/03/24 03:55:54;;;;;;;0.98;0.98;;;;;;;23.43;14.26;100828.78;5107847;28;20023;-73
2022/03/24 03:58:22;;;;;;;0.90;0.90;;;;;;;23.49;13.89;100837.00;5105887;28;20028;-73
2022/03/24 04:00:55;;;;;;;0.80;0.80;;;;;;;23.51;14.23;100837.53;5105997;28;20024;-74
2022/03/24 04:03:24;;;;;;;1.08;0.98;;;;;;;23.53;14.11;100838.13;5105502;28;20036;-74
2022/03/24 04:05:54;;;;;;;0.70;0.70;;;;;;;23.50;14.00;100842.19;5106544;28;20051;-73
2022/03/24 04:08:20;;;;;;;0.80;0.80;;;;;;;23.51;14.05;100841.13;5075839;28;20399;-73
2022/03/24 04:10:45;;;;;;;0.77;0.77;;;;;;;23.50;14.17;100849.56;5076946;28;20052;-74
2022/03/24 04:13:11;;;;;;;1.10;1.00;;;;;;;23.49;14.18;100837.00;5058864;28;20028;-73
2022/03/24 04:15:37;;;;;;;0.80;0.80;;;;;;;23.48;14.06;100833.47;5077164;28;20473;-73
2022/03/24 04:18:03;;;;;;;1.10;1.00;;;;;;;23.49;14.17;100842.44;5077128;28;20382;-73
2022/03/24 04:20:28;;;;;;;0.80;0.80;;;;;;;23.48;14.17;100843.56;5076995;28;20027;-73
2022/03/24 04:22:54;;;;;;;1.30;1.20;;;;;;;23.49;14.09;100842.44;5076673;28;20478;-73
2022/03/24 04:25:20;;;;;;;1.00;0.95;;;;;;;23.50;14.23;100847.66;5058354;28;20028;-73
2022/03/24 04:27:46;;;;;;;1.05;1.00;;;;;;;23.50;14.29;100844.09;5058612;28;20060;-74
2022/03/24 04:30:12;;;;;;;0.85;0.85;;;;;;;23.42;14.25;100831.75;5076995;28;20020;-74
2022/03/24 04:32:38;;;;;;;1.10;1.00;;;;;;;23.52;14.33;100847.38;5077192;28;20028;-74
2022/03/24 04:35:07;;;;;;;1.30;1.17;;;;;;;23.49;14.13;100837.84;5076920;28;20104;-74
2022/03/24 04:37:33;;;;;;;0.93;0.93;;;;;;;23.52;14.39;100845.47;5077286;28;20036;-73
2022/03/24 04:39:58;;;;;;;0.82;0.82;;;;;;;23.48;14.47;100838.91;5077872;28;20363;-73
2022/03/24 04:42:24;;;;;;;1.10;1.00;;;;;;;23.52;14.22;100837.28;5076257;28;20524;-74
2022/03/24 04:44:50;;;;;;;1.00;1.00;;;;;;;23.51;14.23;100832.09;5077647;28;20027;-73
2022/03/24 04:47:15;;;;;;;1.10;1.00;;;;;;;23.54;14.38;100823.38;5076926;28;20390;-73
2022/03/24 04:49:41;;;;;;;0.70;0.70;;;;;;;23.53;14.38;100835.41;5076843;28;20032;-73
2022/03/24 04:52:07;;;;;;;1.15;1.02;;;;;;;23.48;14.37;100829.91;5075712;28;20079;-73
2022/03/24 04:54:33;;;;;;;0.95;0.95;;;;;;;23.52;14.42;100837.28;5075907;28;20028;-74
2022/03/24 04:56:58;;;;;;;0.90;0.90;;;;;;;23.60;14.64;100838.72;5075262;28;20355;-74
2022/03/24 04:59:24;;;;;;;1.02;1.00;;;;;;;23.63;14.60;100835.47;5076276;28;20032;-74
2022/03/24 05:01:49;;;;;;;0.88;0.88;;;;;;;23.66;14.89;100837.66;5075678;28;20021;-73
2022/03/24 05:04:18;;;;;;;0.80;0.80;;;;;;;23.63;15.00;100836.28;5076092;28;20032;-73
2022/03/24 05:06:43;;;;;;;0.75;0.75;;;;;;;23.88;14.53;100831.25;5053405;28;20063;-74
2022/03/24 05:09:10;;;;;;;0.80;0.80;;;;;;;24.07;14.45;100829.69;5055737;28;20037;-73
2022/03/24 05:11:35;;;;;;;0.85;0.85;;;;;;;24.12;14.46;100824.25;5055271;28;20025;-74
2022/03/24 05:14:01;;;;;;;0.73;0.73;;;;;;;24.21;14.70;100823.72;5055564;28;20021;-74
2022/03/24 05:16:28;;;;;;;0.82;0.82;;;;;;;24.47;14.26;100813.69;5055906;28;20024;-74
2022/03/24 05:18:53;;;;;;;1.10;1.00;;;;;;;24.64;13.89;100821.66;5055980;28;20036;-74
2022/03/24 05:21:19;;;;;;;1.00;1.00;;;;;;;24.64;14.17;100818.94;5055313;28;20379;-74
2022/03/24 05:23:44;;;;;;;1.23;1.10;;;;;;;24.73;14.07;100817.28;5055336;28;20028;-74
2022/03/24 05:26:10;;;;;;;0.80;0.80;;;;;;;25.00;14.06;100821.69;5055256;28;20490;-73
2022/03/24 05:28:35;;;;;;;1.30;0.95;;;;;;;25.12;13.91;100814.03;5055489;28;20037;-72
2022/03/24 05:31:01;;;;;;;2.50;1.00;;;;;;;25.12;13.69;100824.97;5055496;28;20467;-73
2022/03/24 05:33:26;;;;;;;0.77;0.77;;;;;;;25.15;13.82;100821.69;5055801;28;20024;-73
2022/03/24 05:35:51;;;;;;;2.28;0.80;;;;;;;25.28;13.76;100821.16;5055143;28;20017;-75
2022/03/24 05:38:17;;;;;;;0.80;0.80;;;;;;;25.56;13.33;100818.06;5055380;28;20032;-76
2022/03/24 05:40:43;;;;;;;0.90;0.90;;;;;;;25.50;13.49;100814.53;5055990;28;20515;-76
2022/03/24 05:43:08;;;;;;;0.80;0.80;;;;;;;25.57;13.70;100815.06;5055575;28;20025;-75
2022/03/24 05:45:34;;;;;;;0.90;0.90;;;;;;;25.75;13.64;100815.56;5037210;28;20538;-76
2022/03/24 05:48:00;;;;;;;1.30;0.80;;;;;;;25.89;13.44;100813.88;5054866;28;20025;-74
2022/03/24 05:50:25;;;;;;;0.80;0.80;;;;;;;25.93;13.50;100816.88;5054571;28;20471;-73
2022/03/24 05:52:51;;;;;;;0.80;0.80;;;;;;;25.84;13.31;100813.91;5054180;28;20100;-76
2022/03/24 05:55:17;;;;;;;2.03;0.82;;;;;;;26.01;13.18;100808.94;5054697;28;20021;-76
2022/03/24 05:57:43;;;;;;;0.80;0.80;;;;;;;26.11;13.04;100805.31;5054467;28;20097;-76
2022/03/24 06:00:09;;;;;;;3.47;0.80;;;;;;;26.13;13.28;100805.84;5054615;28;20025;-76
2022/03/24 06:02:34;;;;;;;0.70;0.70;;;;;;;26.10;13.43;100805.59;5054970;28;20474;-75
2022/03/24 06:04:59;;;;;;;1.05;1.00;;;;;;;26.20;13.08;100811.03;5036360;28;20387;-73
2022/03/24 06:07:25;;;;;;;0.75;0.75;;;;;;;26.30;13.20;100810.97;5064242;28;20113;-76
2022/03/24 06:09:50;;;;;;;0.65;0.65;;;;;;;26.24;13.09;100814.84;5056581;28;20020;-75
2022/03/24 06:12:16;;;;;;;0.90;0.90;;;;;;;25.95;13.69;100814.72;5073989;28;20403;-73
2022/03/24 06:14:41;;;;;;;0.82;0.70;;;;;;;26.16;13.41;100818.16;5073545;28;20024;-73
2022/03/24 06:17:09;;;;;;;2.85;1.10;;;;;;;26.36;13.26;100823.53;5074453;28;20027;-74
2022/03/24 06:19:36;;;;;;;0.90;0.82;;;;;;;26.50;13.02;100820.16;5074183;28;20467;-73
2022/03/24 06:22:04;;;;;;;0.80;0.80;;;;;;;26.53;13.21;100814.13;5073981;28;20116;-72
2022/03/24 06:24:30;;;;;;;0.82;0.82;;;;;;;26.67;12.98;100814.34;5074127;28;20025;-72
2022/03/24 06:26:57;;;;;;;0.73;0.73;;;;;;;26.66;13.01;100826.38;5073738;28;20036;-72
2022/03/24 06:29:22;;;;;;;0.60;0.60;;;;;;;26.62;13.26;100823.41;5074332;28;20032;-72
2022/03/24 06:31:48;;;;;;;0.70;0.70;;;;;;;26.00;13.58;100801.00;5074131;28;20078;-72
2022/03/24 06:34:13;;;;;;;1.42;0.88;;;;;;;26.28;13.51;100824.13;5074593;28;20032;-72
2022/03/24 06:36:39;;;;;;;0.80;0.80;;;;;;;26.22;13.45;100823.34;5073926;28;20024;-72
2022/03/24 06:39:04;;;;;;;0.60;0.60;;;;;;;26.12;13.81;100820.66;5075280;28;20462;-74
2022/03/24 06:41:30;;;;;;;0.70;0.70;;;;;;;26.08;13.73;100821.47;5075060;28;20056;-73
2022/03/24 06:43:57;;;;;;;0.95;0.75;;;;;;;26.02;14.04;100821.50;5074424;28;20051;-73
2022/03/24 06:46:25;;;;;;;0.90;0.90;;;;;;;26.03;14.19;100817.69;5074385;28;20127;-73
2022/03/24 06:48:51;;;;;;;0.90;0.90;;;;;;;25.91;14.30;100806.19;5056429;28;20025;-73
2022/03/24 06:51:17;;;;;;;1.70;0.70;;;;;;;25.92;14.04;100805.09;5073526;28;20027;-72
2022/03/24 06:53:43;;;;;;;0.77;0.77;;;;;;;25.90;14.35;100809.22;5074540;28;20029;-74
2022/03/24 06:56:09;;;;;;;0.80;0.80;;;;;;;25.92;14.34;100807.81;5074089;28;20489;-73
2022/03/24 06:58:34;;;;;;;2.30;0.70;;;;;;;25.62;14.96;100809.59;5075003;28;20021;-74
2022/03/24 07:00:59;;;;;;;0.93;0.82;;;;;;;25.68;14.85;100808.47;5055877;28;20036;-73
2022/03/24 07:03:25;;;;;;;1.35;0.63;;;;;;;25.72;14.69;100807.94;5073976;28;20029;-73
2022/03/24 07:05:50;;;;;;;0.80;0.80;;;;;;;25.76;14.92;100795.31;5077608;28;20036;-73
2022/03/24 07:08:16;;;;;;;1.05;0.80;;;;;;;25.76;14.86;100796.13;5077314;28;20052;-74
2022/03/24 07:10:49;;;;;;;0.95;0.60;;;;;;;25.75;14.92;100799.13;5042130;28;20086;-73
2022/03/24 07:13:15;;;;;;;0.82;0.82;;;;;;;25.67;14.97;100798.63;5077595;28;20032;-73
2022/03/24 07:15:40;;;;;;;0.90;0.90;;;;;;;25.59;14.93;100788.25;5042416;28;20086;-73
2022/03/24 07:18:06;;;;;;;0.80;0.80;;;;;;;25.72;15.06;100794.25;5058928;28;20450;-73
2022/03/24 07:20:34;;;;;;;0.70;0.68;;;;;;;25.51;15.19;100788.00;5078944;28;20083;-73
2022/03/24 07:23:02;;;;;;;1.50;1.40;;;;;;;25.76;14.99;100784.38;5067819;28;20170;-71
2022/03/24 07:25:29;;;;;;;2.17;0.90;;;;;;;25.85;15.12;100789.00;5057009;28;20036;-74
2022/03/24 07:27:54;;;;;;;0.80;0.80;;;;;;;25.91;14.72;100778.00;5039783;28;20033;-72
2022/03/24 07:30:20;;;;;;;0.70;0.70;;;;;;;25.96;14.68;100783.50;5057422;28;20029;-73
2022/03/24 07:32:45;;;;;;;1.20;0.80;;;;;;;25.93;14.65;100784.03;5057148;28;20483;-72
2022/03/24 07:35:14;;;;;;;0.90;0.90;;;;;;;25.91;14.57;100784.31;5038883;28;20033;-72
2022/03/24 07:37:40;;;;;;;0.70;0.70;;;;;;;25.93;14.81;100776.63;5057849;28;20029;-74
2022/03/24 07:40:10;;;;;;;0.95;0.70;;;;;;;25.94;14.72;100781.03;5059015;28;20025;-73
2022/03/24 07:42:47;;;;;;;0.70;0.70;;;;;;;25.96;14.57;100773.34;5042372;28;20116;-70
2022/03/24 07:45:13;;;;;;;1.17;0.90;;;;;;;25.95;14.59;100768.16;5042098;28;20029;-74
2022/03/24 07:48:06;;;;;;;1.30;0.65;;;;;;;25.79;14.96;100770.13;5057521;28;20025;-73
2022/03/24 07:50:31;;;;;;;1.48;0.90;;;;;;;25.81;14.86;100770.66;5057756;28;20048;-73
2022/03/24 07:52:59;;;;;;;0.88;0.63;;;;;;;25.73;14.91;100763.00;5058076;28;20511;-73
2022/03/24 07:55:24;;;;;;;2.03;0.70;;;;;;;25.85;14.88;100766.25;5057629;28;20053;-73
2022/03/24 07:57:50;;;;;;;1.63;0.80;;;;;;;25.83;15.09;100762.97;5057052;28;20383;-72
2022/03/24 08:00:15;;;;;;;0.70;0.70;;;;;;;25.85;14.92;100771.72;5039643;28;20040;-73
2022/03/24 08:02:52;;;;;;;1.63;0.70;;;;;;;25.75;15.15;100771.75;5056953;28;20455;-73
2022/03/24 08:05:18;;;;;;;0.60;0.60;;;;;;;25.70;14.70;100769.88;5057297;28;20029;-74
2022/03/24 08:07:43;;;;;;;1.65;0.77;;;;;;;25.75;14.64;100767.13;5070316;28;20052;-73
2022/03/24 08:10:09;;;;;;;17.92;14.63;;;;;;;25.71;14.77;100765.22;5076795;28;20028;-74
2022/03/24 08:12:35;;;;;;;4.15;2.97;;;;;;;25.78;15.00;100766.53;5059570;28;20028;-73
2022/03/24 08:15:01;;;;;;;2.10;1.90;;;;;;;26.02;14.75;100776.88;5076381;28;20024;-74
2022/03/24 08:17:26;;;;;;;2.42;1.48;;;;;;;25.96;14.86;100767.88;5075619;28;20107;-72
2022/03/24 08:19:52;;;;;;;3.00;1.10;;;;;;;25.89;14.75;100771.97;5076323;28;20024;-72
2022/03/24 08:22:17;;;;;;;1.85;1.20;;;;;;;25.92;14.57;100777.69;5075544;28;20017;-71
2022/03/24 08:24:43;;;;;;;1.85;1.10;;;;;;;25.92;14.47;100774.97;5076092;28;20025;-71
2022/03/24 08:27:08;;;;;;;1.10;1.00;;;;;;;25.82;14.57;100777.78;5076048;28;20037;-71
2022/03/24 08:29:33;;;;;;;1.20;0.98;;;;;;;25.84;14.62;100778.31;5057885;28;20021;-73
2022/03/24 08:32:07;;;;;;;0.90;0.90;;;;;;;25.91;14.41;100783.50;5076130;28;20079;-73
2022/03/24 08:34:32;;;;;;;0.90;0.90;;;;;;;25.94;14.41;100789.25;5075943;28;20032;-72
2022/03/24 08:36:58;;;;;;;1.10;1.00;;;;;;;25.89;14.59;100782.94;5075439;28;20032;-72
2022/03/24 08:39:23;;;;;;;1.00;0.90;;;;;;;25.90;14.38;100779.91;5075665;28;20024;-73
2022/03/24 08:41:49;;;;;;;1.08;0.95;;;;;;;25.86;14.20;100776.09;5075574;28;20044;-73
2022/03/24 08:44:14;;;;;;;1.00;0.80;;;;;;;25.92;14.61;100788.66;5075789;28;20036;-73
2022/03/24 08:46:40;;;;;;;1.13;0.75;;;;;;;25.92;14.57;100782.38;5075477;28;20033;-74
2022/03/24 08:49:05;;;;;;;0.95;0.80;;;;;;;25.95;14.51;100793.59;5075145;28;20082;-72
2022/03/24 08:51:31;;;;;;;1.88;1.02;;;;;;;25.84;14.69;100794.75;5075208;28;20024;-73
2022/03/24 08:53:57;;;;;;;2.80;1.17;;;;;;;25.90;14.47;100788.13;5075507;28;20036;-73
2022/03/24 08:56:22;;;;;;;1.33;1.00;;;;;;;25.92;14.50;100788.66;5074997;28;20024;-73
2022/03/24 08:58:48;;;;;;;2.08;1.02;;;;;;;25.94;14.57;100786.50;5074978;28;20020;-73
2022/03/24 09:01:13;;;;;;;1.48;1.10;;;;;;;25.92;14.33;100794.13;5075771;28;20027;-73
2022/03/24 09:03:39;;;;;;;2.15;1.10;;;;;;;25.97;14.61;100780.44;5075326;28;20027;-73
2022/03/24 09:06:05;;;;;;;1.65;1.08;;;;;;;25.94;14.52;100781.03;5075249;28;20028;-74
2022/03/24 09:08:30;;;;;;;1.25;1.02;;;;;;;25.92;14.51;100776.91;5074800;28;20037;-73
2022/03/24 09:10:56;;;;;;;1.77;1.10;;;;;;;25.98;14.47;100782.09;5074766;28;20083;-73
2022/03/24 09:13:21;;;;;;;0.82;0.80;;;;;;;25.93;14.42;100771.13;5074966;28;20074;-73
2022/03/24 09:15:46;;;;;;;1.63;0.90;;;;;;;25.83;14.49;100768.44;5074313;28;20029;-72
2022/03/24 09:18:13;;;;;;;0.77;0.77;;;;;;;25.90;14.49;100771.69;5075044;28;20028;-72
2022/03/24 09:20:39;;;;;;;0.68;0.60;;;;;;;25.92;14.52;100771.41;5074806;28;20024;-73
2022/03/24 09:23:04;;;;;;;0.70;0.70;;;;;;;25.88;14.48;100768.44;5074910;28;20043;-74
2022/03/24 09:25:30;;;;;;;1.75;0.70;;;;;;;25.91;14.51;100786.22;5074489;28;20054;-73
2022/03/24 09:27:56;;;;;;;0.65;0.65;;;;;;;25.86;14.63;100787.06;5074786;28;20447;-72
2022/03/24 09:30:21;;;;;;;1.85;0.60;;;;;;;25.90;14.40;100788.13;5074902;28;20035;-72
2022/03/24 09:32:47;;;;;;;0.60;0.60;;;;;;;25.90;14.58;100795.53;5074773;28;20028;-72
2022/03/24 09:35:13;;;;;;;0.90;0.50;;;;;;;25.90;14.54;100801.81;5074771;28;20033;-72
2022/03/24 09:37:39;;;;;;;0.60;0.60;;;;;;;25.87;14.78;100802.38;5074754;28;20028;-73
2022/03/24 09:40:06;;;;;;;5.53;0.82;;;;;;;25.80;14.87;100791.75;5074354;28;20021;-72
2022/03/24 09:42:31;;;;;;;0.80;0.63;;;;;;;25.81;15.12;100792.56;5074628;28;20031;-73
2022/03/24 09:44:57;;;;;;;1.58;0.60;;;;;;;25.85;14.75;100796.34;5056557;28;20016;-73
2022/03/24 09:47:26;;;;;;;1.10;0.70;;;;;;;25.89;14.94;100805.66;5074332;28;20581;-72
2022/03/24 09:49:51;;;;;;;0.50;0.50;;;;;;;25.93;14.55;100793.03;5040479;28;20115;-72
2022/03/24 09:52:18;;;;;;;0.45;0.45;;;;;;;25.87;14.67;100796.88;5040117;28;20555;-73
2022/03/24 09:54:45;;;;;;;0.57;0.57;;;;;;;26.02;14.90;100794.13;5040035;28;20127;-72
2022/03/24 09:57:11;;;;;;;0.50;0.50;;;;;;;26.03;14.77;100803.97;5073978;28;20045;-73
2022/03/24 09:59:38;;;;;;;0.40;0.40;;;;;;;26.08;14.80;100807.78;5074138;28;20019;-73
2022/03/24 10:02:07;;;;;;;1.05;0.50;;;;;;;25.99;14.97;100805.66;5074206;28;20028;-72
2022/03/24 10:04:46;;;;;;;0.55;0.55;;;;;;;26.13;14.87;100807.75;5056663;28;20032;-72
2022/03/24 10:07:11;;;;;;;0.55;0.40;;;;;;;26.08;14.87;100811.38;5074763;28;20063;-71
2022/03/24 10:09:47;;;;;;;1.40;0.52;;;;;;;26.10;14.87;100811.09;5074367;28;20459;-72
2022/03/24 10:12:20;;;;;;;1.85;0.70;;;;;;;26.11;15.01;100815.44;5056363;28;20059;-72
2022/03/24 10:14:58;;;;;;;1.10;0.80;;;;;;;26.13;14.94;100815.97;5056817;28;20493;-71
2022/03/24 10:17:24;;;;;;;1.40;0.60;;;;;;;26.09;15.12;100817.66;5074350;28;20031;-77
2022/03/24 10:20:03;;;;;;;1.05;0.75;;;;;;;26.16;15.13;100826.38;5074309;28;20029;-76
2022/03/24 10:22:29;;;;;;;0.70;0.60;;;;;;;26.13;15.13;100822.28;5074049;28;20029;-77
2022/03/24 10:24:54;;;;;;;1.48;0.75;;;;;;;26.13;15.18;100826.94;5074180;28;20048;-77
2022/03/24 10:27:22;;;;;;;1.42;0.80;;;;;;;26.10;14.90;100817.38;5073845;28;20028;-77
2022/03/24 10:29:48;;;;;;;2.45;0.70;;;;;;;26.15;14.94;100824.75;5074823;28;20350;-77
2022/03/24 10:32:16;;;;;;;0.82;0.50;;;;;;;26.17;15.30;100833.50;5056872;28;20285;-77
2022/03/24 10:34:43;;;;;;;0.95;0.50;;;;;;;26.14;15.14;100836.81;5073990;28;20067;-76
2022/03/24 10:37:12;;;;;;;2.60;0.70;;;;;;;26.15;15.22;100842.00;5073768;28;20390;-78
2022/03/24 10:39:54;;;;;;;2.45;0.50;;;;;;;26.15;15.25;100847.47;5007202;28;20047;-77
2022/03/24 10:42:23;;;;;;;2.17;0.60;;;;;;;26.20;15.21;100843.91;5074011;28;20028;-77
2022/03/24 10:45:05;;;;;;;2.47;0.70;;;;;;;26.22;15.48;100852.66;5074082;28;20155;-77
2022/03/24 10:47:54;;;;;;;1.15;0.63;;;;;;;26.22;15.18;100849.91;5078443;28;20383;-78
2022/03/24 10:50:26;;;;;;;0.60;0.57;;;;;;;26.19;15.10;100853.22;5078485;28;20043;-79
2022/03/24 10:52:53;;;;;;;0.63;0.50;;;;;;;26.16;15.28;100849.09;5074508;28;20115;-78
2022/03/24 10:55:40;;;;;;;0.82;0.52;;;;;;;26.22;15.33;100847.19;5073242;28;20103;-77
2022/03/24 10:58:23;;;;;;;1.95;0.55;;;;;;;26.17;15.70;100841.72;5073639;28;20090;-77
2022/03/24 11:00:50;;;;;;;2.45;0.60;;;;;;;26.00;15.37;100845.63;5074303;28;20016;-76
2022/03/24 11:03:16;;;;;;;0.73;0.50;;;;;;;26.05;15.45;100848.34;5073693;28;20024;-76
2022/03/24 11:05:42;;;;;;;2.70;0.70;;;;;;;26.20;15.13;100849.38;5074102;28;20043;-77
2022/03/24 11:08:10;;;;;;;1.83;0.95;;;;;;;26.26;15.10;100852.91;5073411;28;20044;-77
2022/03/24 11:10:50;;;;;;;1.23;0.75;;;;;;;26.24;15.43;100856.75;5073940;28;20055;-77
2022/03/24 11:13:30;;;;;;;1.38;0.73;;;;;;;26.52;15.31;100856.31;5039542;28;20028;-73
2022/03/24 11:15:55;;;;;;;3.78;0.73;;;;;;;26.65;15.03;100853.00;5039087;28;20467;-73
2022/03/24 11:18:25;;;;;;;3.08;1.63;;;;;;;26.77;15.09;100856.19;5055355;28;20024;-73
2022/03/24 11:20:50;;;;;;;5.43;1.30;;;;;;;26.85;15.12;100862.16;5072811;28;20028;-73
2022/03/24 11:23:24;;;;;;;1.48;0.80;;;;;;;26.91;15.07;100864.59;5073039;28;20036;-74